Time;durP1;ratioP1;P1;durP2;ratioP2;P2;SDS_P1;SDS_P2;PMS_P1;PMS_P2;Temp;Humidity;BMP_temperature;BMP_pressure;BME280_temperature;BME280_humidity;BME280_pressure;Samples;Min_cycle;Max_cycle;Signal;HPM_P1;HPM_P2
2022/01/28 00:15:21;;;;;;;;;;;;;;;;;;;;;
2022/01/28 00:41:29;;;;;;;;;;;;;;;;;;;;;
2022/01/28 00:48:25;;;;;;;16.15;8.90;;;;;;;1.82;100.00;98568.17;4018062;86;21632;-94
2022/01/28 00:54:06;;;;;;;14.00;8.13;;;;;;;1.81;100.00;98569.27;3917675;87;21528;-93
2022/01/28 01:06:33;;;;;;;12.80;7.83;;;;;;;1.87;100.00;98566.05;3894548;88;21112;-93
2022/01/28 01:12:42;;;;;;;14.68;8.60;;;;;;;1.95;100.00;98576.00;3954660;88;21124;-92
2022/01/28 01:31:19;;;;;;;11.53;6.92;;;;;;;2.12;100.00;98554.82;3838288;88;21220;-93
2022/01/28 01:37:35;;;;;;;10.95;5.70;;;;;;;2.16;99.81;98527.41;3914530;88;21071;-93
2022/01/28 01:57:01;;;;;;;11.50;6.75;;;;;;;2.14;99.05;98547.98;3773495;91;21233;-91
2022/01/28 02:03:23;;;;;;;10.03;5.35;;;;;;;1.99;99.68;98539.12;3661343;94;21176;-92
2022/01/28 02:09:41;;;;;;;;;;;;;;;;;;;;;
2022/01/28 02:15:46;;;;;;;8.28;5.10;;;;;;;1.79;99.76;98522.91;3991378;87;21591;-91
2022/01/28 02:22:08;;;;;;;10.38;5.67;;;;;;;1.67;99.55;98503.97;4009396;86;21767;-91
2022/01/28 02:28:16;;;;;;;7.37;5.05;;;;;;;1.58;99.52;98498.06;3999297;87;21090;-92
2022/01/28 02:34:29;;;;;;;7.92;4.28;;;;;;;1.63;99.41;98502.47;4030515;86;21113;-92
2022/01/28 02:41:06;;;;;;;8.80;4.87;;;;;;;1.66;99.11;98491.02;4020104;87;21723;-92
2022/01/28 02:47:07;;;;;;;9.77;4.40;;;;;;;1.73;98.67;98481.86;4024675;86;21172;-92
2022/01/28 02:53:25;;;;;;;8.70;2.75;;;;;;;1.74;98.62;98492.11;4022230;86;21822;-92
2022/01/28 02:59:33;;;;;;;7.12;3.45;;;;;;;1.88;98.37;98510.94;4029269;87;21106;-91
2022/01/28 03:05:45;;;;;;;6.08;3.92;;;;;;;1.92;98.26;98518.62;3948982;88;21533;-92
2022/01/28 03:11:57;;;;;;;6.00;3.40;;;;;;;1.96;97.57;98519.53;3847648;87;5527724;-92
2022/01/28 03:18:06;;;;;;;5.42;3.10;;;;;;;1.90;97.42;98518.70;4002597;86;21077;-91
2022/01/28 03:24:01;;;;;;;5.70;3.60;;;;;;;1.88;96.85;98524.44;3978202;86;21179;-91
2022/01/28 03:30:17;;;;;;;5.55;3.37;;;;;;;1.92;97.09;98505.68;3985675;87;21131;-92
2022/01/28 03:36:31;;;;;;;5.40;2.92;;;;;;;1.82;97.37;98507.45;3991952;86;21164;-92
2022/01/28 03:42:48;;;;;;;;;;;;;;;;;;;;;
2022/01/28 03:48:56;;;;;;;;;;;;;;;;;;;;;
2022/01/28 04:01:13;;;;;;;6.35;4.03;;;;;;;2.13;95.46;98521.31;3969367;87;21046;-92
2022/01/28 04:13:52;;;;;;;5.92;3.17;;;;;;;2.20;94.26;98519.66;3988245;86;21158;-92
2022/01/28 04:20:13;;;;;;;5.05;2.70;;;;;;;2.21;93.28;98525.86;3963793;86;21167;-91
2022/01/28 04:26:14;;;;;;;7.35;3.00;;;;;;;2.21;93.58;98520.45;3982559;86;21627;-91
2022/01/28 04:32:29;;;;;;;8.18;2.70;;;;;;;2.24;92.95;98518.44;3978627;86;21084;-92
2022/01/28 04:38:46;;;;;;;5.15;2.33;;;;;;;2.27;92.95;98510.44;4003796;87;21127;-92
2022/01/28 04:44:56;;;;;;;6.33;1.65;;;;;;;2.24;93.31;98509.76;3983552;86;21629;-92
2022/01/28 04:57:36;;;;;;;5.33;2.30;;;;;;;2.28;92.54;98527.45;4013633;86;21162;-92
2022/01/28 05:29:11;;;;;;;;;;;;;;;;;;;;;
2022/01/28 05:35:18;;;;;;;9.50;2.85;;;;;;;1.79;93.73;98550.70;3992547;86;21173;-90
2022/01/28 05:41:24;;;;;;;7.42;2.92;;;;;;;1.69;94.16;98561.09;3992709;86;21047;-92
2022/01/28 05:47:36;;;;;;;6.78;3.60;;;;;;;1.53;94.91;98559.53;3965522;86;22113;-92
2022/01/28 05:53:53;;;;;;;9.75;4.30;;;;;;;1.44;95.20;98576.33;3980592;86;21011;-92
2022/01/28 06:00:21;;;;;;;7.30;3.85;;;;;;;1.33;95.85;98569.14;3968542;86;21188;-92
2022/01/28 06:06:33;;;;;;;11.17;5.37;;;;;;;1.30;97.18;98577.11;3987477;86;21124;-91
2022/01/28 06:19:14;;;;;;;9.90;4.78;;;;;;;1.18;97.51;98587.22;3997642;86;21041;-92
2022/01/28 06:25:59;;;;;;;;;;;;;;;;;;;;;
2022/01/28 06:31:57;;;;;;;;;;;;;;;;;;;;;
2022/01/28 06:38:08;;;;;;;10.95;4.30;;;;;;;1.03;98.08;98602.58;3995717;85;22327;-92
2022/01/28 06:44:19;;;;;;;8.70;4.33;;;;;;;0.91;98.51;98605.70;4010971;85;21531;-93
2022/01/28 06:50:34;;;;;;;12.05;4.30;;;;;;;0.89;98.68;98622.75;3976200;85;21162;-92
2022/01/28 06:56:44;;;;;;;9.45;5.10;;;;;;;0.86;98.74;98620.69;3997426;85;21151;-92
2022/01/28 07:03:01;;;;;;;;;;;;;;;;;;;;;
2022/01/28 07:09:02;;;;;;;11.55;7.05;;;;;;;0.82;99.42;98638.59;3983952;87;21780;-90
2022/01/28 07:15:13;;;;;;;15.65;7.15;;;;;;;0.85;99.78;98650.08;3995991;87;21152;-92
2022/01/28 07:21:31;;;;;;;15.58;7.00;;;;;;;0.89;100.00;98653.73;3939532;88;21035;-92
2022/01/28 07:27:36;;;;;;;16.32;6.47;;;;;;;0.96;100.00;98658.06;3921446;87;21195;-92
2022/01/28 07:33:42;;;;;;;20.80;7.25;;;;;;;1.02;100.00;98644.66;3892423;88;21110;-91
2022/01/28 07:39:51;;;;;;;13.80;5.12;;;;;;;1.13;100.00;98652.09;4002253;86;21074;-92
2022/01/28 07:45:56;;;;;;;19.17;6.80;;;;;;;1.26;100.00;98675.37;3979943;85;21110;-91
2022/01/28 07:51:59;;;;;;;19.35;7.45;;;;;;;1.36;100.00;98664.22;3992188;85;21098;-92
2022/01/28 07:58:02;;;;;;;17.37;6.00;;;;;;;1.49;100.00;98671.33;3997297;85;21177;-90
2022/01/28 08:04:09;;;;;;;14.87;6.40;;;;;;;1.61;100.00;98670.66;3993077;87;21072;-90
2022/01/28 08:10:16;;;;;;;14.45;5.40;;;;;;;1.68;100.00;98670.16;3976183;87;21102;-92
2022/01/28 08:16:19;;;;;;;18.95;4.90;;;;;;;1.80;100.00;98679.70;3998816;87;21611;-92
2022/01/28 08:22:22;;;;;;;14.70;5.67;;;;;;;1.91;100.00;98677.63;3901687;90;21104;-91
2022/01/28 08:28:38;;;;;;;14.15;4.25;;;;;;;1.98;99.94;98689.27;3986790;87;21786;-92
2022/01/28 08:34:46;;;;;;;11.68;4.12;;;;;;;2.00;99.44;98694.59;4018616;85;21149;-92
2022/01/28 08:40:46;;;;;;;12.85;4.10;;;;;;;2.09;99.19;98703.98;3971360;85;21076;-91
2022/01/28 08:46:54;;;;;;;14.53;3.60;;;;;;;2.15;98.91;98711.58;4031262;86;21151;-93
2022/01/28 08:52:57;;;;;;;13.72;5.30;;;;;;;2.18;98.64;98730.38;4026516;85;21113;-92
2022/01/28 08:59:12;;;;;;;14.75;5.60;;;;;;;2.12;98.86;98747.33;4042738;85;21197;-92
2022/01/28 09:05:16;;;;;;;10.55;4.62;;;;;;;1.98;99.03;98741.91;3962867;86;21107;-92
2022/01/28 09:17:30;;;;;;;19.50;7.47;;;;;;;1.88;99.43;98778.73;3986077;87;21116;-92
2022/01/28 09:23:50;;;;;;;;;;;;;;;;;;;;;
2022/01/28 09:29:46;;;;;;;18.00;6.08;;;;;;;1.75;99.87;98799.41;3975745;87;21104;-91
2022/01/28 09:35:54;;;;;;;17.40;5.55;;;;;;;1.71;100.00;98802.50;3970807;87;21500;-91
2022/01/28 09:42:13;;;;;;;;;;;;;;;;;;;;;
2022/01/28 09:48:11;;;;;;;16.55;4.72;;;;;;;1.79;100.00;98800.34;3975782;86;21981;-91
2022/01/28 09:54:25;;;;;;;13.72;5.05;;;;;;;1.85;100.00;98809.84;3986312;86;21084;-91
2022/01/28 10:00:43;;;;;;;13.65;5.00;;;;;;;1.91;100.00;98807.78;3979155;88;21076;-91
2022/01/28 10:06:56;;;;;;;16.48;5.30;;;;;;;1.95;100.00;98810.05;3974570;86;21134;-92
2022/01/28 10:13:19;;;;;;;17.05;5.33;;;;;;;1.86;100.00;98810.09;3984483;86;21215;-92
2022/01/28 10:19:40;;;;;;;11.03;4.67;;;;;;;1.78;100.00;98825.75;3976897;86;21102;-91
2022/01/28 10:32:24;;;;;;;16.77;6.87;;;;;;;1.66;100.00;98826.18;3956535;86;21073;-92
2022/01/28 10:38:41;;;;;;;15.48;5.50;;;;;;;1.55;100.00;98837.30;3997472;86;21155;-91
2022/01/28 10:44:55;;;;;;;20.30;7.67;;;;;;;1.47;100.00;98844.84;3998929;86;21171;-91
2022/01/28 10:57:22;;;;;;;;;;;;;;;;;;;;;
2022/01/28 11:03:30;;;;;;;14.15;6.10;;;;;;;1.35;100.00;98859.53;4004773;87;21577;-92
2022/01/28 11:09:36;;;;;;;28.87;10.88;;;;;;;1.34;100.00;98865.24;3971719;87;21086;-91
2022/01/28 11:15:36;;;;;;;17.75;7.35;;;;;;;1.38;100.00;98862.13;3987413;86;21611;-92
2022/01/28 11:22:20;;;;;;;19.17;8.88;;;;;;;1.45;100.00;98868.66;3998496;87;21115;-91
2022/01/28 11:28:44;;;;;;;15.38;6.80;;;;;;;1.52;100.00;98874.35;3924801;87;21131;-92
2022/01/28 11:35:02;;;;;;;;;;;;;;;1.57;100.00;98880.14;3987766;87;21180;-91
2022/01/28 11:41:15;;;;;;;21.80;8.70;;;;;;;1.58;100.00;98885.80;3972185;87;20096;-91
2022/01/28 11:47:32;;;;;;;28.55;11.43;;;;;;;1.63;100.00;98892.92;3984472;86;21426;-92
2022/01/28 11:53:46;;;;;;;25.57;13.53;;;;;;;1.66;100.00;98889.59;4053074;86;21915;-93
2022/01/28 11:59:59;;;;;;;17.92;9.45;;;;;;;1.66;100.00;98899.03;4025711;86;21209;-92
2022/01/28 12:06:10;;;;;;;25.75;10.43;;;;;;;1.63;100.00;98907.99;4067864;85;21672;-91
2022/01/28 12:12:26;;;;;;;22.80;12.27;;;;;;;1.59;100.00;98914.34;4073071;86;21056;-91
2022/01/28 12:18:58;;;;;;;23.73;10.32;;;;;;;1.54;100.00;98930.14;4080692;85;21721;-90
2022/01/28 12:25:13;;;;;;;26.10;11.83;;;;;;;1.47;100.00;98921.72;3797182;85;12400176;-92
2022/01/28 12:31:35;;;;;;;32.10;12.43;;;;;;;1.54;100.00;98931.49;4089907;85;21089;-92
2022/01/28 12:37:49;;;;;;;26.55;12.58;;;;;;;1.50;100.00;98937.27;4101063;85;21106;-91
2022/01/28 12:43:57;;;;;;;;;;;;;;;;;;;;;
2022/01/28 12:50:06;;;;;;;30.13;14.37;;;;;;;1.60;100.00;98939.66;4108140;84;21144;-92
2022/01/28 12:56:18;;;;;;;33.92;17.15;;;;;;;1.67;100.00;98944.59;4066602;84;21197;-92
2022/01/28 13:02:24;;;;;;;22.15;11.95;;;;;;;1.72;100.00;98943.63;4105914;84;21123;-92
2022/01/28 13:08:39;;;;;;;21.52;12.70;;;;;;;1.75;100.00;98961.88;4113374;83;1882033;-92
2022/01/28 13:15:02;;;;;;;22.55;12.68;;;;;;;1.78;100.00;98970.69;4124025;84;21553;-92
2022/01/28 13:21:10;;;;;;;22.62;10.72;;;;;;;1.76;100.00;98984.50;4059137;86;21045;-93
2022/01/28 13:27:17;;;;;;;20.23;10.30;;;;;;;1.75;100.00;98994.27;4053848;85;21181;-92
2022/01/28 13:33:28;;;;;;;20.80;10.38;;;;;;;1.76;100.00;99005.29;4067305;86;21664;-91
2022/01/28 13:39:30;;;;;;;17.20;8.15;;;;;;;1.79;100.00;99006.00;4056160;84;21079;-92
2022/01/28 13:45:56;;;;;;;21.00;9.40;;;;;;;1.80;100.00;99021.11;4060280;84;21087;-90
2022/01/28 13:52:42;;;;;;;21.12;10.30;;;;;;;1.79;100.00;99023.00;3985263;87;21107;-91
2022/01/28 13:59:04;;;;;;;21.00;10.43;;;;;;;1.78;100.00;99038.97;4050043;86;21094;-91
2022/01/28 14:05:06;;;;;;;19.80;9.18;;;;;;;1.83;100.00;99052.86;3993976;86;21108;-92
2022/01/28 14:11:29;;;;;;;20.85;8.33;;;;;;;1.87;100.00;99068.11;4164529;83;21082;-90
2022/01/28 14:17:35;;;;;;;17.80;7.72;;;;;;;1.92;100.00;99080.11;4165021;84;21101;-90
2022/01/28 14:23:43;;;;;;;20.23;8.45;;;;;;;2.00;100.00;99083.38;4175269;83;21076;-91
2022/01/28 14:29:50;;;;;;;24.18;9.03;;;;;;;2.06;100.00;99090.75;4170631;83;21102;-92
2022/01/28 14:35:52;;;;;;;23.27;9.65;;;;;;;2.11;100.00;99094.65;4140260;83;22181;-92
2022/01/28 14:42:05;;;;;;;28.90;12.50;;;;;;;2.12;100.00;99109.19;4140710;84;21540;-91
2022/01/28 14:48:09;;;;;;;30.60;10.28;;;;;;;2.15;100.00;99128.00;4174895;83;21089;-92
2022/01/28 14:54:15;;;;;;;27.37;9.63;;;;;;;2.12;100.00;99130.79;4155597;83;21074;-92
2022/01/28 15:00:18;;;;;;;47.35;18.65;;;;;;;2.09;100.00;99133.32;4178454;83;21038;-92
2022/01/28 15:06:24;;;;;;;36.58;15.68;;;;;;;2.06;100.00;99150.96;4190812;83;21598;-91
2022/01/28 15:12:29;;;;;;;29.00;11.48;;;;;;;2.04;100.00;99161.27;4064893;82;2244371;-92
2022/01/28 15:18:32;;;;;;;38.73;14.03;;;;;;;2.04;100.00;99176.67;4022664;86;21072;-92
2022/01/28 15:24:36;;;;;;;31.57;11.60;;;;;;;2.01;100.00;99192.15;4014501;86;21812;-92
2022/01/28 15:36:53;;;;;;;21.02;8.15;;;;;;;2.00;100.00;99205.42;4003963;86;21158;-91
2022/01/28 15:43:00;;;;;;;31.12;12.68;;;;;;;1.99;100.00;99210.02;4021206;86;21142;-91
2022/01/28 15:48:58;;;;;;;38.67;18.45;;;;;;;1.99;100.00;99222.16;4020488;86;21117;-92
2022/01/28 15:55:01;;;;;;;28.62;12.13;;;;;;;2.00;100.00;99231.07;3984297;86;21102;-90
2022/01/28 16:01:05;;;;;;;22.05;9.58;;;;;;;2.00;100.00;99258.88;4015079;86;21059;-91
2022/01/28 16:07:15;;;;;;;21.40;8.98;;;;;;;1.98;100.00;99278.64;4030148;86;21517;-93
2022/01/28 16:13:39;;;;;;;38.17;15.55;;;;;;;1.88;100.00;99284.30;4020844;86;21122;-92
2022/01/28 16:19:25;;;;;;;25.70;11.68;;;;;;;1.73;100.00;99296.86;4002656;86;21851;-92
2022/01/28 16:25:29;;;;;;;22.90;9.60;;;;;;;1.69;100.00;99299.14;4047864;86;21134;-92
2022/01/28 16:31:31;;;;;;;31.15;12.13;;;;;;;1.70;100.00;99304.22;4000483;86;21142;-91
2022/01/28 16:37:33;;;;;;;30.62;11.10;;;;;;;1.70;100.00;99309.63;4045264;86;21216;-92
2022/01/28 16:43:38;;;;;;;26.05;12.10;;;;;;;1.76;100.00;99324.58;4016751;86;21061;-93
2022/01/28 16:49:46;;;;;;;37.98;14.03;;;;;;;1.73;100.00;99331.94;3991098;86;21125;-93
2022/01/28 16:55:50;;;;;;;41.63;14.68;;;;;;;1.74;100.00;99336.22;4033816;86;21111;-92
2022/01/28 17:01:54;;;;;;;38.38;14.13;;;;;;;1.74;100.00;99342.97;4012525;86;21059;-91
2022/01/28 17:07:56;;;;;;;33.42;12.75;;;;;;;1.74;100.00;99352.99;4003139;85;2052664;-91
2022/01/28 17:14:01;;;;;;;29.27;9.85;;;;;;;1.73;100.00;99371.62;4079463;85;21654;-91
2022/01/28 17:20:10;;;;;;;22.77;9.05;;;;;;;1.71;100.00;99382.72;4061729;85;21066;-92
2022/01/28 17:26:12;;;;;;;20.32;8.20;;;;;;;1.67;100.00;99383.11;4085206;85;21057;-90
2022/01/28 17:32:14;;;;;;;27.45;10.55;;;;;;;1.64;100.00;99400.69;4053186;85;21134;-92
2022/01/28 17:38:22;;;;;;;33.63;14.10;;;;;;;1.60;100.00;99407.02;4087563;85;21062;-92
2022/01/28 17:44:25;;;;;;;36.05;14.25;;;;;;;1.53;100.00;99414.75;4090077;85;21086;-91
2022/01/28 17:50:33;;;;;;;29.80;13.80;;;;;;;1.41;100.00;99412.58;4075381;85;21110;-92
2022/01/28 17:56:34;;;;;;;31.23;14.07;;;;;;;1.43;100.00;99434.66;3997042;86;21120;-92
2022/01/28 18:02:36;;;;;;;33.95;15.93;;;;;;;1.48;100.00;99448.59;3980532;86;21116;-91
2022/01/28 18:08:39;;;;;;;40.98;15.78;;;;;;;1.49;100.00;99456.38;4031214;87;21525;-91
2022/01/28 18:14:40;;;;;;;43.17;15.40;;;;;;;1.50;100.00;99455.26;3984785;87;21070;-91
2022/01/28 18:20:44;;;;;;;30.68;14.23;;;;;;;1.57;100.00;99468.34;3976315;86;21576;-90
2022/01/28 18:26:46;;;;;;;33.73;13.75;;;;;;;1.60;100.00;99464.48;4009501;87;21117;-92
2022/01/28 18:32:48;;;;;;;30.57;12.98;;;;;;;1.63;100.00;99466.34;4021510;87;21133;-91
2022/01/28 18:38:53;;;;;;;30.85;12.90;;;;;;;1.59;100.00;99470.19;3913873;88;21697;-92
2022/01/28 18:44:57;;;;;;;30.23;12.33;;;;;;;1.54;100.00;99473.80;3907475;88;302806;-92
2022/01/28 18:50:58;;;;;;;24.87;9.80;;;;;;;1.44;100.00;99489.42;4028254;85;21043;-93
2022/01/28 18:57:00;;;;;;;25.97;9.70;;;;;;;1.42;100.00;99487.57;4050457;85;21083;-92
2022/01/28 19:03:05;;;;;;;26.68;11.68;;;;;;;1.34;100.00;99497.72;4017275;86;21099;-92
2022/01/28 19:09:07;;;;;;;35.68;15.60;;;;;;;1.31;100.00;99500.48;4034045;85;21094;-92
2022/01/28 19:15:12;;;;;;;34.10;15.25;;;;;;;1.31;100.00;99509.12;4008075;86;21101;-92
2022/01/28 19:21:15;;;;;;;45.10;18.05;;;;;;;1.33;100.00;99515.80;4036787;85;21110;-92
2022/01/28 19:27:21;;;;;;;54.13;22.77;;;;;;;1.37;100.00;99521.39;4040886;85;21130;-92
2022/01/28 19:33:23;;;;;;;29.42;12.90;;;;;;;1.34;100.00;99522.00;3919829;86;9999583;-92
2022/01/28 19:39:26;;;;;;;11.30;5.75;;;;;;;1.30;100.00;99604.64;4046092;85;21086;-91
2022/01/28 19:45:32;;;;;;;10.38;4.55;;;;;;;0.97;100.00;99599.05;4012472;85;22340;-90
2022/01/28 19:51:36;;;;;;;9.45;3.47;;;;;;;0.72;100.00;99610.28;4026916;85;21113;-90
2022/01/28 19:57:41;;;;;;;7.75;3.47;;;;;;;0.59;100.00;99623.97;3983431;85;21970;-92
2022/01/28 20:03:49;;;;;;;8.53;4.00;;;;;;;0.53;100.00;99639.16;3923044;89;21717;-91
2022/01/28 20:09:58;;;;;;;10.63;3.67;;;;;;;0.48;100.00;99644.08;4016967;86;21095;-92
2022/01/28 20:15:57;;;;;;;8.95;3.10;;;;;;;0.45;100.00;99658.14;4024850;86;21142;-90
2022/01/28 20:21:59;;;;;;;8.63;3.75;;;;;;;0.44;100.00;99668.64;4011150;86;21103;-91
2022/01/28 20:28:01;;;;;;;9.95;4.12;;;;;;;0.43;100.00;99678.36;4035615;85;21670;-92
2022/01/28 20:34:05;;;;;;;14.20;5.47;;;;;;;0.42;100.00;99685.66;4036938;85;21447;-91
2022/01/28 20:40:10;;;;;;;10.15;4.72;;;;;;;0.39;100.00;99701.06;3995944;86;21060;-91
2022/01/28 20:46:12;;;;;;;10.90;4.30;;;;;;;0.39;100.00;99710.48;4034759;86;21102;-91
2022/01/28 20:52:13;;;;;;;12.37;4.15;;;;;;;0.39;99.74;99715.88;4043886;86;21106;-91
2022/01/28 20:58:15;;;;;;;8.85;3.98;;;;;;;0.35;99.34;99724.27;4069177;85;21134;-91
2022/01/28 21:04:17;;;;;;;9.93;4.60;;;;;;;0.33;99.02;99743.16;4053503;85;21048;-91
2022/01/28 21:10:23;;;;;;;12.73;5.60;;;;;;;0.33;99.23;99752.02;4057624;85;21588;-92
2022/01/28 21:16:28;;;;;;;15.18;7.00;;;;;;;0.35;99.16;99765.19;4039533;85;21079;-91
2022/01/28 21:22:29;;;;;;;21.40;8.70;;;;;;;0.33;99.33;99780.30;4010615;85;21057;-93
2022/01/28 21:28:30;;;;;;;22.90;8.75;;;;;;;0.33;99.37;99784.91;4043678;85;21050;-90
2022/01/28 21:34:32;;;;;;;21.77;8.53;;;;;;;0.28;99.27;99789.81;4026594;85;21149;-92
2022/01/28 21:40:33;;;;;;;17.45;6.97;;;;;;;0.22;99.29;99803.62;4052071;85;21046;-91
2022/01/28 21:46:35;;;;;;;19.05;7.33;;;;;;;0.16;99.02;99812.85;3996123;86;21153;-91
2022/01/28 21:52:38;;;;;;;21.15;7.90;;;;;;;0.09;98.94;99823.15;3903375;88;21115;-91
2022/01/28 21:58:40;;;;;;;23.40;10.70;;;;;;;0.06;99.11;99833.95;4032596;85;21362;-91
2022/01/28 22:04:41;;;;;;;25.57;10.30;;;;;;;-0.02;99.02;99834.02;4032304;85;21094;-91
2022/01/28 22:10:43;;;;;;;30.70;9.60;;;;;;;-0.03;98.87;99859.34;4052023;85;21170;-91
2022/01/28 22:16:44;;;;;;;19.50;8.50;;;;;;;-0.04;98.75;99855.59;4068090;85;21158;-91
2022/01/28 22:22:46;;;;;;;22.55;9.85;;;;;;;-0.06;98.70;99865.29;4043184;85;22225;-91
2022/01/28 22:28:47;;;;;;;22.00;10.38;;;;;;;-0.07;98.79;99859.66;4021717;86;21098;-91
2022/01/28 22:34:48;;;;;;;26.35;9.48;;;;;;;-0.10;99.00;99865.61;4027224;85;21074;-92
2022/01/28 22:40:50;;;;;;;25.40;10.60;;;;;;;-0.10;99.00;99865.61;4045317;85;21204;-92
2022/01/28 22:46:51;;;;;;;22.50;10.82;;;;;;;-0.13;99.16;99877.48;4035088;85;21078;-91
2022/01/28 22:52:52;;;;;;;23.18;11.20;;;;;;;-0.12;99.23;99885.80;4050127;85;21067;-92
2022/01/28 22:58:56;;;;;;;30.27;11.80;;;;;;;-0.12;98.88;99887.96;4047645;85;21067;-89
2022/01/28 23:04:57;;;;;;;29.07;11.38;;;;;;;-0.12;98.89;99892.00;4043247;85;21163;-91
2022/01/28 23:10:58;;;;;;;23.38;11.33;;;;;;;-0.10;98.96;99889.02;4039679;86;21222;-90
2022/01/28 23:17:00;;;;;;;26.57;11.10;;;;;;;-0.10;98.78;99896.56;3896220;89;21362;-91
2022/01/28 23:23:03;;;;;;;29.87;13.78;;;;;;;-0.08;98.77;99890.90;3902036;88;21248;-90
2022/01/28 23:29:05;;;;;;;25.85;10.58;;;;;;;-0.07;98.67;99894.66;4041168;86;21161;-91
2022/01/28 23:35:08;;;;;;;21.17;9.60;;;;;;;-0.04;98.44;99909.42;3914738;88;21626;-89
2022/01/28 23:41:11;;;;;;;21.42;9.70;;;;;;;-0.04;98.44;99909.42;4007126;86;21217;-90
2022/01/28 23:47:13;;;;;;;20.30;8.65;;;;;;;-0.02;98.36;99911.30;3992940;86;21033;-90
2022/01/28 23:53:14;;;;;;;19.45;8.55;;;;;;;-0.14;98.13;99903.58;3994178;86;21115;-90
2022/01/28 23:59:16;;;;;;;22.20;9.65;;;;;;;-0.02;98.03;99920.71;3988001;87;21080;-91
